Terminal Aerodrome Forecast
Issued by NWS Greer, SC

Home | Current Version | Previous Version | Text Only | Print | Product List | Glossary On
Versions: 1 2 3 4 5 6 7 8 9 10 11 12
000
FTUS42 KGSP 312333
TAFGSP
TAF
KGSP 312333Z 0100/0124 14006KT P6SM FEW060 SCT200
     FM010600 VRB03KT P6SM SCT200
     FM011500 25005KT P6SM FEW060 SCT200
     FM011800 21007KT P6SM VCSH BKN050 PROB30 0120/0124 4SM -TSRA
      OVC040CB=

USA.gov is the U.S. government's official web portal to all federal, state and local government web resources and services.